createdAt,value
2018-11-06T00:00:15.329Z,45.73
2018-11-06T00:02:44.235Z,43.77
2018-11-06T00:05:16.478Z,46.67
2018-11-06T00:07:45.593Z,48.97
2018-11-06T00:10:14.198Z,45.88
2018-11-06T00:12:42.730Z,43.87
2018-11-06T00:15:11.594Z,45.77
2018-11-06T00:17:40.563Z,43.10
2018-11-06T00:20:11.442Z,43.73
2018-11-06T00:22:40.080Z,44.47
2018-11-06T00:25:15.314Z,41.80
2018-11-06T00:27:44.603Z,41.60
2018-11-06T00:30:14.140Z,40.47
2018-11-06T00:32:44.065Z,40.83
2018-11-06T00:35:14.991Z,40.40
2018-11-06T00:37:44.346Z,40.53
2018-11-06T00:40:13.078Z,40.50
2018-11-06T00:42:41.639Z,39.30
2018-11-06T00:45:12.438Z,42.43
2018-11-06T00:47:41.325Z,39.80
2018-11-06T00:50:10.959Z,38.90
2018-11-06T00:52:40.626Z,38.60
2018-11-06T00:55:09.593Z,37.30
2018-11-06T00:57:39.517Z,34.33
2018-11-06T01:00:10.927Z,33.50
2018-11-06T01:02:39.434Z,33.27
2018-11-06T01:05:09.578Z,34.23
2018-11-06T01:07:38.171Z,32.60
2018-11-06T01:10:08.036Z,34.90
2018-11-06T01:12:36.655Z,34.33
2018-11-06T01:15:05.677Z,33.67
2018-11-06T01:17:34.211Z,36.43
2018-11-06T01:20:03.017Z,35.00
2018-11-06T01:22:31.874Z,33.50
2018-11-06T01:25:02.112Z,36.57
2018-11-06T01:27:31.028Z,35.30
2018-11-06T01:30:00.439Z,37.30
2018-11-06T01:32:28.948Z,37.47
2018-11-06T01:34:57.515Z,37.83
2018-11-06T01:37:26.059Z,36.60
2018-11-06T01:39:57.619Z,38.67
2018-11-06T01:42:26.194Z,38.10
2018-11-06T01:44:54.774Z,36.80
2018-11-06T01:47:23.434Z,34.77
2018-11-06T01:49:52.790Z,40.37
2018-11-06T01:52:21.403Z,35.00
2018-11-06T01:54:49.956Z,37.70
2018-11-06T01:57:18.510Z,36.40
2018-11-06T01:59:48.275Z,40.10
2018-11-06T02:02:16.824Z,41.30
2018-11-06T02:04:45.972Z,38.17
2018-11-06T02:07:14.594Z,34.53
2018-11-06T02:09:43.077Z,40.87
2018-11-06T02:12:13.172Z,41.43
2018-11-06T02:14:41.779Z,37.27
2018-11-06T02:17:10.368Z,38.13
2018-11-06T02:19:39.003Z,39.63
2018-11-06T02:22:07.562Z,40.30
2018-11-06T02:24:36.276Z,42.57
2018-11-06T02:27:04.831Z,40.27
2018-11-06T02:29:34.014Z,38.17
2018-11-06T02:32:02.570Z,37.97
2018-11-06T02:34:31.154Z,42.97
2018-11-06T02:36:59.795Z,40.27
2018-11-06T02:39:28.319Z,40.70
2018-11-06T02:41:56.946Z,42.00
2018-11-06T02:44:26.365Z,38.80
2018-11-06T02:46:54.881Z,38.33
2018-11-06T02:49:23.398Z,38.37
2018-11-06T02:51:52.328Z,36.90
2018-11-06T02:54:20.874Z,36.37
2018-11-06T02:56:49.433Z,42.13
2018-11-06T02:59:18.102Z,37.10
2018-11-06T03:01:46.676Z,45.40
2018-11-06T03:04:15.999Z,46.70
2018-11-06T03:06:44.590Z,44.07
2018-11-06T03:09:13.874Z,43.93
2018-11-06T03:11:42.441Z,51.80
2018-11-06T03:14:10.986Z,45.50
2018-11-06T03:16:39.630Z,44.93
2018-11-06T03:19:08.134Z,44.30
2018-11-06T03:21:37.134Z,45.70
2018-11-06T03:24:06.571Z,46.17
2018-11-06T03:26:35.194Z,44.40
2018-11-06T03:29:03.687Z,46.00
2018-11-06T03:31:32.940Z,45.00
2018-11-06T03:34:01.438Z,40.97
2018-11-06T03:36:29.913Z,43.53
2018-11-06T03:38:58.449Z,44.80
2018-11-06T03:41:26.995Z,42.77
2018-11-06T03:43:55.490Z,43.00
2018-11-06T03:46:24.125Z,42.77
2018-11-06T03:48:52.638Z,42.10
2018-11-06T03:51:21.201Z,42.33
2018-11-06T03:53:49.701Z,42.70
2018-11-06T03:56:18.198Z,40.53
2018-11-06T03:58:47.440Z,44.47
2018-11-06T04:01:15.991Z,38.97
2018-11-06T04:03:44.535Z,45.17
2018-11-06T04:06:13.055Z,41.83
2018-11-06T04:08:41.546Z,43.10
2018-11-06T04:11:10.310Z,42.67
2018-11-06T04:13:38.878Z,41.43
2018-11-06T04:16:07.411Z,39.77
2018-11-06T04:18:35.969Z,40.93
2018-11-06T04:21:05.150Z,39.97
2018-11-06T04:23:34.291Z,41.27
2018-11-06T04:26:03.442Z,39.63
2018-11-06T04:28:31.945Z,36.27
2018-11-06T04:31:00.469Z,41.47
2018-11-06T04:33:29.039Z,38.93
2018-11-06T04:35:57.528Z,39.57
2018-11-06T04:38:26.093Z,37.40
2018-11-06T04:40:55.300Z,38.40
2018-11-06T04:43:23.773Z,37.73
2018-11-06T04:45:52.347Z,37.73
2018-11-06T04:48:20.892Z,39.97
2018-11-06T04:50:50.001Z,35.93
2018-11-06T04:53:18.526Z,37.87
2018-11-06T04:55:47.092Z,40.97
2018-11-06T04:58:16.321Z,40.10
2018-11-06T05:00:44.835Z,39.43
2018-11-06T05:03:13.992Z,38.70
2018-11-06T05:05:42.509Z,40.73
2018-11-06T05:08:11.079Z,40.47
2018-11-06T05:10:39.738Z,41.87
2018-11-06T05:13:08.294Z,39.70
2018-11-06T05:15:36.867Z,37.33
2018-11-06T05:18:05.971Z,36.67
2018-11-06T05:20:34.555Z,37.17
2018-11-06T05:23:03.060Z,37.70
2018-11-06T05:25:31.799Z,32.87
2018-11-06T05:28:00.261Z,35.60
2018-11-06T05:30:28.842Z,32.03
2018-11-06T05:33:00.395Z,32.80
2018-11-06T05:35:28.967Z,34.03
2018-11-06T05:37:57.576Z,33.37
2018-11-06T05:40:37.365Z,34.17
2018-11-06T05:43:06.191Z,36.13
2018-11-06T05:45:34.769Z,33.00
2018-11-06T05:48:03.291Z,37.40
2018-11-06T05:50:31.847Z,36.60
2018-11-06T05:53:00.349Z,36.90
2018-11-06T05:55:28.914Z,36.17
2018-11-06T05:57:57.454Z,36.37
2018-11-06T06:00:26.031Z,36.50
2018-11-06T06:02:54.523Z,35.93
2018-11-06T06:05:23.130Z,35.10
2018-11-06T06:07:51.678Z,35.30
2018-11-06T06:10:21.216Z,32.53
2018-11-06T06:12:50.508Z,31.67
2018-11-06T06:15:19.117Z,34.00
2018-11-06T06:17:47.721Z,33.43
2018-11-06T06:20:16.307Z,33.07
2018-11-06T06:22:44.864Z,31.47
2018-11-06T06:25:13.382Z,33.98
2018-11-06T06:27:41.954Z,31.20
2018-11-06T06:30:13.168Z,31.57
2018-11-06T06:32:42.758Z,32.40
2018-11-06T06:35:11.591Z,30.97
2018-11-06T06:37:40.114Z,31.17
2018-11-06T06:40:12.186Z,30.40
2018-11-06T06:42:40.884Z,30.13
2018-11-06T06:45:11.384Z,30.23
2018-11-06T06:47:39.945Z,29.60
2018-11-06T06:50:10.680Z,31.27
2018-11-06T06:52:39.839Z,29.87
2018-11-06T06:55:10.058Z,27.75
2018-11-06T06:57:39.739Z,29.30
2018-11-06T07:00:13.402Z,29.90
2018-11-06T07:02:42.130Z,29.23
2018-11-06T07:05:13.187Z,31.33
2018-11-06T07:07:42.578Z,31.93
2018-11-06T07:10:13.034Z,29.80
2018-11-06T07:12:42.839Z,29.30
2018-11-06T07:15:13.575Z,28.70
2018-11-06T07:17:42.717Z,29.33
2018-11-06T07:20:14.247Z,30.67
2018-11-06T07:22:43.551Z,29.50
2018-11-06T07:25:13.738Z,31.10
2018-11-06T07:27:43.150Z,27.50
2018-11-06T07:30:14.379Z,29.70
2018-11-06T07:32:43.911Z,31.00
2018-11-06T07:35:13.259Z,27.57
2018-11-06T07:37:42.427Z,27.00
2018-11-06T07:40:12.350Z,28.80
2018-11-06T07:42:40.992Z,26.97
2018-11-06T07:45:12.251Z,29.30
2018-11-06T07:47:40.947Z,26.23
2018-11-06T07:50:10.363Z,26.43
2018-11-06T07:52:39.673Z,28.43
2018-11-06T07:55:10.618Z,25.73
2018-11-06T07:57:39.498Z,27.10
2018-11-06T08:00:16.509Z,26.62
2018-11-06T08:02:46.106Z,27.47
2018-11-06T08:05:15.058Z,25.80
2018-11-06T08:07:44.477Z,25.07
2018-11-06T08:10:13.696Z,25.90
2018-11-06T08:12:44.172Z,25.20
2018-11-06T08:15:19.374Z,26.50
2018-11-06T08:17:48.419Z,24.90
2018-11-06T08:20:17.103Z,25.40
2018-11-06T08:22:45.637Z,24.53
2018-11-06T08:25:15.434Z,23.90
2018-11-06T08:27:44.702Z,25.10
2018-11-06T08:30:14.876Z,24.05
2018-11-06T08:32:44.458Z,26.33
2018-11-06T08:35:15.391Z,24.93
2018-11-06T08:37:44.240Z,20.50
2018-11-06T08:40:14.205Z,22.83
2018-11-06T08:42:42.838Z,23.13
2018-11-06T08:45:13.478Z,22.90
2018-11-06T08:47:43.058Z,21.53
2018-11-06T08:50:13.109Z,21.83
2018-11-06T08:52:41.937Z,22.40
2018-11-06T08:55:11.567Z,22.07
2018-11-06T08:57:41.611Z,23.20
2018-11-06T09:00:12.594Z,20.57
2018-11-06T09:02:41.116Z,22.30
2018-11-06T09:05:11.565Z,23.00
2018-11-06T09:07:46.626Z,21.13
2018-11-06T09:10:16.071Z,23.65
2018-11-06T09:12:46.838Z,20.30
2018-11-06T09:15:16.919Z,21.67
2018-11-06T09:17:45.787Z,23.53
2018-11-06T09:20:15.653Z,20.67
2018-11-06T09:22:44.182Z,21.40
2018-11-06T09:25:13.989Z,23.13
2018-11-06T09:27:43.309Z,24.47
2018-11-06T09:30:14.187Z,22.17
2018-11-06T09:32:42.751Z,21.33
2018-11-06T09:35:12.609Z,21.50
2018-11-06T09:37:41.783Z,21.20
2018-11-06T09:40:12.661Z,20.97
2018-11-06T09:42:41.403Z,20.70
2018-11-06T09:45:10.605Z,19.40
2018-11-06T09:47:39.045Z,21.37
2018-11-06T09:50:12.071Z,21.42
2018-11-06T09:52:40.769Z,19.97
2018-11-06T09:55:09.385Z,20.13
2018-11-06T09:57:37.913Z,18.80
2018-11-06T10:00:09.624Z,19.73
2018-11-06T10:02:38.260Z,18.93
2018-11-06T10:05:08.164Z,21.07
2018-11-06T10:07:37.382Z,20.40
2018-11-06T10:10:08.090Z,19.17
2018-11-06T10:12:37.115Z,19.80
2018-11-06T10:15:07.182Z,17.70
2018-11-06T10:17:37.242Z,18.40
2018-11-06T10:20:07.656Z,16.93
2018-11-06T10:22:36.178Z,19.60
2018-11-06T10:25:05.571Z,19.33
2018-11-06T10:27:34.739Z,18.20
2018-11-06T10:30:03.559Z,16.03
2018-11-06T10:32:32.207Z,16.73
2018-11-06T10:35:00.956Z,16.70
2018-11-06T10:37:29.547Z,15.53
2018-11-06T10:39:58.144Z,16.70
2018-11-06T10:42:26.683Z,13.93
2018-11-06T10:44:55.226Z,14.60
2018-11-06T10:47:23.763Z,15.07
2018-11-06T10:49:52.297Z,15.20
2018-11-06T10:52:21.389Z,14.33
2018-11-06T10:54:52.986Z,15.70
2018-11-06T10:57:21.528Z,14.80
2018-11-06T10:59:50.086Z,14.63
2018-11-06T11:03:24.867Z,16.20
2018-11-06T11:05:53.442Z,16.57
2018-11-06T11:08:21.979Z,16.20
2018-11-06T11:10:51.199Z,14.70
2018-11-06T11:13:19.757Z,17.10
2018-11-06T11:15:48.401Z,14.40
2018-11-06T11:18:17.414Z,15.47
2018-11-06T11:20:46.845Z,15.33
2018-11-06T11:23:15.379Z,16.33
2018-11-06T11:25:44.058Z,16.03
2018-11-06T11:28:12.838Z,16.40
2018-11-06T11:30:42.229Z,14.27
2018-11-06T11:33:11.748Z,15.87
2018-11-06T11:35:40.296Z,15.13
2018-11-06T11:38:08.859Z,13.60
2018-11-06T11:40:37.521Z,12.47
2018-11-06T11:43:06.397Z,14.33
2018-11-06T11:45:34.968Z,13.07
2018-11-06T11:48:03.474Z,13.73
2018-11-06T11:50:32.069Z,14.60
2018-11-06T11:53:00.566Z,14.03
2018-11-06T11:55:29.117Z,12.67
2018-11-06T11:57:57.666Z,12.90
2018-11-06T12:00:28.406Z,14.00
2018-11-06T12:02:57.421Z,13.70
2018-11-06T12:05:25.937Z,13.47
2018-11-06T12:07:54.505Z,14.40
2018-11-06T12:10:23.027Z,13.00
2018-11-06T12:12:51.581Z,13.03
2018-11-06T12:15:20.164Z,13.40
2018-11-06T12:17:55.113Z,12.00
2018-11-06T12:20:23.610Z,12.77
2018-11-06T12:22:52.269Z,12.23
2018-11-06T12:25:21.045Z,14.30
2018-11-06T12:27:49.387Z,11.63
2018-11-06T12:30:18.320Z,13.57
2018-11-06T12:32:46.884Z,13.27
2018-11-06T12:35:18.602Z,13.27
2018-11-06T12:37:47.836Z,12.03
2018-11-06T12:40:17.379Z,13.17
2018-11-06T12:42:45.990Z,12.07
2018-11-06T12:45:16.397Z,12.50
2018-11-06T12:47:45.438Z,12.13
2018-11-06T12:50:14.071Z,11.90
2018-11-06T12:52:42.935Z,13.10
2018-11-06T12:55:13.116Z,11.90
2018-11-06T12:57:41.686Z,12.10
2018-11-06T13:00:13.420Z,12.83
2018-11-06T13:02:42.953Z,12.77
2018-11-06T13:05:12.215Z,12.10
2018-11-06T13:07:41.846Z,11.70
2018-11-06T13:10:11.868Z,12.20
2018-11-06T13:12:41.187Z,11.97
2018-11-06T13:15:11.465Z,11.13
2018-11-06T13:17:40.015Z,11.80
2018-11-06T13:20:10.593Z,11.70
2018-11-06T13:22:40.007Z,11.70
2018-11-06T13:25:15.116Z,12.30
2018-11-06T13:27:43.820Z,10.90
2018-11-06T13:30:15.205Z,10.83
2018-11-06T13:32:44.485Z,10.00
2018-11-06T13:35:13.741Z,11.03
2018-11-06T13:37:42.337Z,10.60
2018-11-06T13:40:12.341Z,10.57
2018-11-06T13:42:41.064Z,10.80
2018-11-06T13:45:12.526Z,11.07
2018-11-06T13:47:41.018Z,10.40
2018-11-06T13:50:09.688Z,11.63
2018-11-06T13:52:39.062Z,10.47
2018-11-06T13:55:10.416Z,11.03
2018-11-06T13:57:39.025Z,10.13
2018-11-06T14:00:12.810Z,10.10
2018-11-06T14:02:41.935Z,9.40
2018-11-06T14:05:10.503Z,10.43
2018-11-06T14:07:39.158Z,10.67
2018-11-06T14:10:09.223Z,10.28
2018-11-06T14:12:37.801Z,9.87
2018-11-06T14:15:06.594Z,9.80
2018-11-06T14:17:35.331Z,10.83
2018-11-06T14:20:04.222Z,10.10
2018-11-06T14:22:32.731Z,10.60
2018-11-06T14:25:01.366Z,9.97
2018-11-06T14:27:29.955Z,10.60
2018-11-06T14:29:58.510Z,10.80
2018-11-06T14:32:27.086Z,11.30
2018-11-06T14:34:56.331Z,9.63
2018-11-06T14:37:25.557Z,9.90
2018-11-06T14:39:54.157Z,10.20
2018-11-06T14:42:23.279Z,10.87
2018-11-06T14:44:53.658Z,10.33
2018-11-06T14:47:22.297Z,10.90
2018-11-06T14:49:50.877Z,10.17
2018-11-06T14:52:19.479Z,9.80
2018-11-06T14:54:48.012Z,9.50
2018-11-06T14:57:16.591Z,9.70
2018-11-06T14:59:45.094Z,10.03
2018-11-06T15:02:14.222Z,8.70
2018-11-06T15:04:42.779Z,9.43
2018-11-06T15:07:11.351Z,9.10
2018-11-06T15:09:39.902Z,8.20
2018-11-06T15:12:08.409Z,8.57
2018-11-06T15:14:36.971Z,8.57
2018-11-06T15:17:06.030Z,8.80
2018-11-06T15:19:34.690Z,9.10
2018-11-06T15:22:03.698Z,8.37
2018-11-06T15:24:32.193Z,10.20
2018-11-06T15:27:00.853Z,9.70
2018-11-06T15:29:29.363Z,9.40
2018-11-06T15:31:57.929Z,11.40
2018-11-06T15:34:26.473Z,11.50
2018-11-06T15:36:55.020Z,11.43
2018-11-06T15:39:23.613Z,11.73
2018-11-06T15:41:52.243Z,11.27
2018-11-06T15:44:20.672Z,10.77
2018-11-06T15:46:49.765Z,10.60
2018-11-06T15:49:18.411Z,11.67
2018-11-06T15:51:46.983Z,11.57
2018-11-06T15:54:15.515Z,12.67
2018-11-06T15:56:44.067Z,14.30
2018-11-06T15:59:12.654Z,13.03
2018-11-06T16:01:41.237Z,13.10
2018-11-06T16:04:09.788Z,12.10
2018-11-06T16:06:38.480Z,13.67
2018-11-06T16:09:07.779Z,14.40
2018-11-06T16:11:36.286Z,13.30
2018-11-06T16:14:04.868Z,12.87
2018-11-06T16:16:34.707Z,14.57
2018-11-06T16:19:03.689Z,13.00
2018-11-06T16:21:32.284Z,14.67
2018-11-06T16:24:01.074Z,13.07
2018-11-06T16:26:29.965Z,17.00
2018-11-06T16:28:58.502Z,14.00
2018-11-06T16:31:27.071Z,14.47
2018-11-06T16:33:55.657Z,13.13
2018-11-06T16:36:24.629Z,14.40
2018-11-06T16:38:53.670Z,14.23
2018-11-06T16:41:22.296Z,14.17
2018-11-06T16:43:50.978Z,15.93
2018-11-06T16:46:19.538Z,14.87
2018-11-06T16:48:48.098Z,16.53
2018-11-06T16:51:16.622Z,14.80
2018-11-06T16:53:46.301Z,14.60
2018-11-06T16:56:14.883Z,15.17
2018-11-06T16:58:43.455Z,17.40
2018-11-06T17:01:12.910Z,16.50
2018-11-06T17:03:41.478Z,13.90
2018-11-06T17:06:15.134Z,16.90
2018-11-06T17:08:43.935Z,17.30
2018-11-06T17:11:12.441Z,14.50
2018-11-06T17:13:41.020Z,16.53
2018-11-06T17:16:09.562Z,18.13
2018-11-06T17:18:38.186Z,17.10
2018-11-06T17:21:07.695Z,16.97
2018-11-06T17:23:36.856Z,18.23
2018-11-06T17:26:05.753Z,15.10
2018-11-06T17:28:34.391Z,15.80
2018-11-06T17:31:02.898Z,17.90
2018-11-06T17:33:31.400Z,18.20
2018-11-06T17:35:59.910Z,18.17
2018-11-06T17:38:28.453Z,17.63
2018-11-06T17:40:57.013Z,19.63
2018-11-06T17:43:25.582Z,18.73
2018-11-06T17:45:54.113Z,17.83
2018-11-06T17:48:23.275Z,17.37
2018-11-06T17:50:52.371Z,16.70
2018-11-06T17:53:20.994Z,19.03
2018-11-06T17:55:49.543Z,18.33
2018-11-06T17:58:18.092Z,17.27
2018-11-06T18:00:46.703Z,18.20
2018-11-06T18:03:15.234Z,17.80
2018-11-06T18:05:43.961Z,19.63
2018-11-06T18:08:12.486Z,18.77
2018-11-06T18:10:42.340Z,19.10
2018-11-06T18:13:10.848Z,17.67
2018-11-06T18:15:40.121Z,17.80
2018-11-06T18:18:08.820Z,18.13
2018-11-06T18:20:37.357Z,19.53
2018-11-06T18:23:06.367Z,21.33
2018-11-06T18:25:35.040Z,18.97
2018-11-06T18:28:04.306Z,20.00
2018-11-06T18:30:32.876Z,18.60
2018-11-06T18:33:01.431Z,20.13
2018-11-06T18:35:30.019Z,16.10
2018-11-06T18:37:58.551Z,19.37
2018-11-06T18:40:27.129Z,17.10
2018-11-06T18:42:55.688Z,19.23
2018-11-06T18:45:24.810Z,18.20
2018-11-06T18:47:54.053Z,18.70
2018-11-06T18:50:22.642Z,19.77
2018-11-06T18:52:51.811Z,19.83
2018-11-06T18:55:20.583Z,18.23
2018-11-06T18:57:49.177Z,19.43
2018-11-06T19:00:21.994Z,16.97
2018-11-06T19:02:51.581Z,18.63
2018-11-06T19:05:21.022Z,18.50
2018-11-06T19:07:49.627Z,19.30
2018-11-06T19:10:18.544Z,19.03
2018-11-06T19:12:47.528Z,20.00
2018-11-06T19:15:18.309Z,19.70
2018-11-06T19:17:47.603Z,18.43
2018-11-06T19:20:16.774Z,19.40
2018-11-06T19:22:45.988Z,20.80
2018-11-06T19:25:15.866Z,19.27
2018-11-06T19:27:44.672Z,20.00
2018-11-06T19:30:16.368Z,20.12
2018-11-06T19:32:45.267Z,19.13
2018-11-06T19:35:14.197Z,20.83
2018-11-06T19:37:43.218Z,20.10
2018-11-06T19:40:16.251Z,20.40
2018-11-06T19:42:45.818Z,21.43
2018-11-06T19:45:14.767Z,21.02
2018-11-06T19:47:43.544Z,21.17
2018-11-06T19:50:14.991Z,20.73
2018-11-06T19:52:43.625Z,21.30
2018-11-06T19:55:13.724Z,20.30
2018-11-06T19:57:42.290Z,22.33
2018-11-06T20:00:28.150Z,21.20
2018-11-06T20:02:56.695Z,21.73
2018-11-06T20:05:25.514Z,23.55
2018-11-06T20:07:54.129Z,22.63
2018-11-06T20:10:24.365Z,22.13
2018-11-06T20:12:54.095Z,20.57
2018-11-06T20:15:23.533Z,20.50
2018-11-06T20:17:53.441Z,21.40
2018-11-06T20:20:23.914Z,23.50
2018-11-06T20:22:52.649Z,20.80
2018-11-06T20:25:21.190Z,21.63
2018-11-06T20:27:50.395Z,19.83
2018-11-06T20:30:20.422Z,21.27
2018-11-06T20:32:48.989Z,20.67
2018-11-06T20:35:18.037Z,20.80
2018-11-06T20:37:46.609Z,21.77
2018-11-06T20:40:17.001Z,20.80
2018-11-06T20:42:46.963Z,19.43
2018-11-06T20:45:16.798Z,21.33
2018-11-06T20:47:45.765Z,22.33
2018-11-06T20:50:22.375Z,18.90
2018-11-06T20:52:50.992Z,22.23
2018-11-06T20:55:20.674Z,22.10
2018-11-06T20:57:49.445Z,21.23
2018-11-06T21:00:21.516Z,20.57
2018-11-06T21:02:50.807Z,20.27
2018-11-06T21:05:19.338Z,20.90
2018-11-06T21:07:48.422Z,21.07
2018-11-06T21:10:18.778Z,20.17
2018-11-06T21:12:47.383Z,20.00
2018-11-06T21:15:15.986Z,20.07
2018-11-06T21:17:44.767Z,20.33
2018-11-06T21:20:14.107Z,21.13
2018-11-06T21:22:43.017Z,21.10
2018-11-06T21:25:12.117Z,21.03
2018-11-06T21:27:41.813Z,21.20
2018-11-06T21:30:12.108Z,18.20
2018-11-06T21:32:42.015Z,19.63
2018-11-06T21:35:11.160Z,18.80
2018-11-06T21:37:40.436Z,19.50
2018-11-06T21:40:11.159Z,19.77
2018-11-06T21:42:40.300Z,19.80
2018-11-06T21:45:10.212Z,19.17
2018-11-06T21:47:39.033Z,18.27
2018-11-06T21:50:11.358Z,19.00
2018-11-06T21:52:40.870Z,18.27
2018-11-06T21:55:10.799Z,17.93
2018-11-06T21:57:39.532Z,17.53
2018-11-06T22:00:10.804Z,20.48
2018-11-06T22:02:39.740Z,18.60
2018-11-06T22:05:10.255Z,19.77
2018-11-06T22:07:38.955Z,20.03
2018-11-06T22:10:09.201Z,22.03
2018-11-06T22:12:37.745Z,20.90
2018-11-06T22:15:07.767Z,22.17
2018-11-06T22:17:36.591Z,22.33
2018-11-06T22:20:06.447Z,19.67
2018-11-06T22:22:35.144Z,21.67
2018-11-06T22:25:03.866Z,19.30
2018-11-06T22:27:33.027Z,19.27
2018-11-06T22:30:01.506Z,18.87
2018-11-06T22:32:30.051Z,18.90
2018-11-06T22:34:59.551Z,18.73
2018-11-06T22:37:28.376Z,17.60
2018-11-06T22:39:57.958Z,17.10
2018-11-06T22:42:26.474Z,17.60
2018-11-06T22:44:55.112Z,18.60
2018-11-06T22:47:23.679Z,16.97
2018-11-06T22:49:52.211Z,16.37
2018-11-06T22:52:20.723Z,16.67
2018-11-06T22:54:49.265Z,17.97
2018-11-06T22:57:17.869Z,17.90
2018-11-06T22:59:46.986Z,15.90
2018-11-06T23:02:15.602Z,15.88
2018-11-06T23:04:44.165Z,15.70
2018-11-06T23:07:18.180Z,16.27
2018-11-06T23:09:46.680Z,15.30
2018-11-06T23:12:15.199Z,15.10
2018-11-06T23:14:43.737Z,14.47
2018-11-06T23:17:12.307Z,14.30
2018-11-06T23:19:41.538Z,13.67
2018-11-06T23:22:10.074Z,13.93
2018-11-06T23:24:38.742Z,15.60
2018-11-06T23:27:07.710Z,13.83
2018-11-06T23:29:37.318Z,14.30
2018-11-06T23:32:06.755Z,16.33
2018-11-06T23:34:35.293Z,14.50
2018-11-06T23:37:03.887Z,12.90
2018-11-06T23:39:33.228Z,12.90
2018-11-06T23:42:01.766Z,13.80
2018-11-06T23:44:32.531Z,13.80
2018-11-06T23:47:04.290Z,14.70
2018-11-06T23:49:33.238Z,12.97
2018-11-06T23:52:03.638Z,14.47
2018-11-06T23:54:32.793Z,12.67
2018-11-06T23:57:01.390Z,12.67
2018-11-06T23:59:30.908Z,13.47
